Roherstown, Pennsylvania
Current Conditions -  °F | °C
As of 9:53 PM on Sunday 23 Nov 2014 (Local Time) from KLNS Reporting Station
Broken Clouds Broken Clouds  
Wind Chill: 45°   Ceiling: 3400
Heat Index: 48°   Visibility: 10mi
Dew Point: 40°   Wind: 7mph
Humidity: 74%   Direction: 120°ESE
Pressure: 29.96"   Gusts: NA
Location:  40.0115°N, 76.3553°W
Report Text: KLNS 240253Z 12006KT 10SM SCT029 BKN034 BKN044 09/04 A2996 RMK AO2 SLP146 T00890044 58037
Loading
Personal Weather Stations






























Interactive Weather Map New forecast layout! Learn more

10-Day Weather Forecast

Advertisements
Track Severe Weather on mobile